KBFL/BFL METAR and TAF weather

Enter ICAO airport designator
Station Type Date Time Source
KBFL METAR 2022/01/29 08:54 UTC NOAA

KBFL 290854Z AUTO 03006KT 10SM CLR 07/M01 A3022 RMK AO2 SLP232 T00721006 50003


Station Type Date Time Source
KBFL Decoded METAR 2022/01/29 08:54 UTC NOAA

BAKERSFIELD MEADOWS FIELD, CA, United States (KBFL) 35-26N 119-03W 151M
Jan 29, 2022 - 03:54 AM EST / 2022.01.29 0854 UTC
Wind: from the NNE (030 degrees) at 7 MPH (6 KT):0
Visibility: 10 mile(s):0
Sky conditions: clear
Temperature: 45.0 F (7.2 C)
Dew Point: 30.9 F (-0.6 C)
Relative Humidity: 57%
Pressure (altimeter): 30.22 in. Hg (1023 hPa)
Pressure tendency: 0.01 inches (0.3 hPa) higher than three hours ago
ob: KBFL 290854Z AUTO 03006KT 10SM CLR 07/M01 A3022 RMK AO2 SLP232 T00721006 50003
cycle: 9

Station Type Date Time Source
KBFL TAF 2022/01/29 06:22 UTC NOAA

TAF KBFL 290520Z 2906/3006 VRB04KT P6SM SCT200

Example: see airport list